TimeMDT,TemperatureF,Dew PointF,Humidity,Sea Level PressureIn,VisibilityMPH,Wind Direction,Wind SpeedMPH,Gust SpeedMPH,PrecipitationIn,Events,Conditions,WindDirDegrees,DateUTC
12:53 AM,64.9,9.0,11,29.69,10.0,East,6.9,-,N/A,,Clear,80,2013-06-23 06:53:00
1:53 AM,59.0,12.0,16,29.72,10.0,ENE,8.1,-,N/A,,Clear,60,2013-06-23 07:53:00
2:53 AM,53.1,17.1,24,29.75,10.0,NNE,5.8,-,N/A,,Clear,30,2013-06-23 08:53:00
3:53 AM,53.1,18.0,25,29.74,10.0,NE,8.1,-,N/A,,Clear,40,2013-06-23 09:53:00
4:53 AM,55.9,17.1,22,29.75,10.0,NE,6.9,-,N/A,,Clear,40,2013-06-23 10:53:00
5:53 AM,48.9,19.9,32,29.79,10.0,NNE,9.2,-,N/A,,Clear,20,2013-06-23 11:53:00
6:53 AM,55.9,21.9,27,29.78,10.0,NE,10.4,-,N/A,,Clear,40,2013-06-23 12:53:00
7:53 AM,69.1,21.9,17,29.75,10.0,East,8.1,-,N/A,,Clear,80,2013-06-23 13:53:00
8:53 AM,75.9,24.1,15,29.76,10.0,West,4.6,-,N/A,,Clear,270,2013-06-23 14:53:00
9:53 AM,78.1,35.1,21,29.77,10.0,ENE,10.4,-,N/A,,Clear,70,2013-06-23 15:53:00
10:53 AM,82.0,32.0,16,29.76,10.0,East,3.5,-,N/A,,Clear,80,2013-06-23 16:53:00
11:53 AM,84.0,24.1,11,29.73,10.0,SSE,9.2,-,N/A,,Clear,150,2013-06-23 17:53:00
12:53 PM,88.0,15.1,7,29.71,10.0,SSE,19.6,25.3,N/A,,Clear,160,2013-06-23 18:53:00
1:53 PM,91.0,14.0,6,29.70,10.0,South,24.2,32.2,N/A,,Clear,170,2013-06-23 19:53:00
2:53 PM,91.0,12.0,5,29.69,10.0,South,23.0,29.9,N/A,,Clear,190,2013-06-23 20:53:00
3:53 PM,90.0,14.0,6,29.67,10.0,South,27.6,39.1,N/A,,Clear,170,2013-06-23 21:53:00
4:53 PM,89.1,12.0,6,29.65,10.0,South,21.9,33.4,N/A,,Clear,170,2013-06-23 22:53:00
5:53 PM,88.0,10.0,5,29.65,10.0,South,25.3,36.8,N/A,,Clear,180,2013-06-23 23:53:00
6:53 PM,87.1,10.0,6,29.63,10.0,South,24.2,31.1,N/A,,Clear,190,2013-06-24 00:53:00
7:53 PM,82.0,9.0,6,29.62,10.0,South,17.3,-,N/A,,Clear,190,2013-06-24 01:53:00
8:53 PM,73.0,9.0,8,29.65,10.0,WSW,6.9,-,N/A,,Clear,250,2013-06-24 02:53:00
9:53 PM,66.9,10.9,11,29.68,10.0,SSW,8.1,-,N/A,,Clear,210,2013-06-24 03:53:00
10:53 PM,64.0,10.9,13,29.69,10.0,South,9.2,-,N/A,,Clear,190,2013-06-24 04:53:00
11:53 PM,63.0,10.9,13,29.69,10.0,South,8.1,-,N/A,,Clear,190,2013-06-24 05:53:00